createdAt,value
2018-02-15T00:01:54.634Z,-1.40
2018-02-15T00:04:22.912Z,-1.30
2018-02-15T00:06:51.176Z,-1.30
2018-02-15T00:09:20.223Z,-1.20
2018-02-15T00:11:48.484Z,-1.30
2018-02-15T00:14:17.534Z,-1.30
2018-02-15T00:16:45.805Z,-1.30
2018-02-15T00:19:14.099Z,-1.20
2018-02-15T00:21:42.413Z,-1.20
2018-02-15T00:24:10.687Z,-1.10
2018-02-15T00:26:39.225Z,-1.10
2018-02-15T00:29:07.503Z,-1.10
2018-02-15T00:31:35.778Z,-1.10
2018-02-15T00:34:04.053Z,-1.10
2018-02-15T00:36:32.339Z,-1.10
2018-02-15T00:41:43.676Z,-1.20
2018-02-15T00:44:11.997Z,-1.20
2018-02-15T00:46:41.450Z,-1.20
2018-02-15T00:49:09.728Z,-1.30
2018-02-15T00:51:37.986Z,-1.20
2018-02-15T00:54:06.268Z,-1.20
2018-02-15T00:56:35.306Z,-1.30
2018-02-15T00:59:04.339Z,-1.30
2018-02-15T01:01:32.649Z,-1.30
2018-02-15T01:04:00.998Z,-1.30
2018-02-15T01:06:29.286Z,-1.40
2018-02-15T01:08:58.327Z,-1.40
2018-02-15T01:11:26.599Z,-1.50
2018-02-15T01:13:54.876Z,-1.40
2018-02-15T01:16:23.140Z,-1.30
2018-02-15T01:18:51.419Z,-1.40
2018-02-15T01:21:19.683Z,-1.40
2018-02-15T01:23:47.950Z,-1.40
2018-02-15T01:26:16.439Z,-1.30
2018-02-15T01:28:44.735Z,-1.30
2018-02-15T01:31:13.108Z,-1.30
2018-02-15T01:33:42.207Z,-1.20
2018-02-15T01:36:11.357Z,-1.20
2018-02-15T01:38:39.628Z,-1.20
2018-02-15T01:41:07.900Z,-1.20
2018-02-15T01:43:36.918Z,-1.10
2018-02-15T01:46:05.173Z,-1.10
2018-02-15T01:48:33.450Z,-1.00
2018-02-15T01:51:01.759Z,-1.00
2018-02-15T01:53:29.998Z,-1.00
2018-02-15T01:55:58.275Z,-1.00
2018-02-15T01:58:26.539Z,-1.00
2018-02-15T02:00:55.570Z,-1.00
2018-02-15T02:03:23.852Z,-1.00
2018-02-15T02:05:52.137Z,-0.90
2018-02-15T02:08:20.401Z,-0.90
2018-02-15T02:10:49.463Z,-0.80
2018-02-15T02:13:17.730Z,-0.80
2018-02-15T02:15:46.372Z,-0.80
2018-02-15T02:18:14.651Z,-0.80
2018-02-15T02:20:43.061Z,-0.70
2018-02-15T02:23:13.015Z,-0.70
2018-02-15T02:25:42.097Z,-0.60
2018-02-15T02:28:10.379Z,-0.70
2018-02-15T02:30:38.731Z,-0.60
2018-02-15T02:33:07.048Z,-0.60
2018-02-15T02:35:35.325Z,-0.60
2018-02-15T02:38:03.585Z,-0.60
2018-02-15T02:40:31.948Z,-0.50
2018-02-15T02:43:01.003Z,-0.40
2018-02-15T02:45:29.296Z,-0.50
2018-02-15T02:47:57.580Z,-0.40
2018-02-15T02:50:25.843Z,-0.40
2018-02-15T02:52:54.124Z,-0.30
2018-02-15T02:55:22.408Z,-0.30
2018-02-15T02:57:51.440Z,-0.30
2018-02-15T03:00:19.708Z,-0.30
2018-02-15T03:02:47.982Z,-0.30
2018-02-15T03:05:16.337Z,-0.30
2018-02-15T03:07:44.774Z,-0.30
2018-02-15T03:10:13.838Z,-0.30
2018-02-15T03:12:42.339Z,-0.30
2018-02-15T03:15:10.637Z,-0.30
2018-02-15T03:17:38.939Z,-0.20
2018-02-15T03:20:07.213Z,-0.20
2018-02-15T03:22:35.512Z,-0.20
2018-02-15T03:25:03.768Z,-0.20
2018-02-15T03:27:32.093Z,-0.20
2018-02-15T03:30:00.361Z,-0.20
2018-02-15T03:32:28.629Z,-0.10
2018-02-15T03:34:56.905Z,-0.10
2018-02-15T03:37:25.177Z,-0.10
2018-02-15T03:39:54.198Z,-0.10
2018-02-15T03:42:23.223Z,-0.10
2018-02-15T03:44:51.486Z,-0.10
2018-02-15T03:47:20.521Z,-0.10
2018-02-15T03:49:48.775Z,-0.10
2018-02-15T03:52:17.846Z,-0.10
2018-02-15T03:54:46.130Z,-0.20
2018-02-15T03:57:15.223Z,-0.10
2018-02-15T03:59:43.623Z,-0.10
2018-02-15T04:02:12.206Z,-0.10
2018-02-15T04:04:41.387Z,0.00
2018-02-15T04:07:10.484Z,0.00
2018-02-15T04:09:39.504Z,-0.10
2018-02-15T04:12:08.588Z,0.00
2018-02-15T04:14:36.904Z,-0.10
2018-02-15T04:17:05.937Z,-0.10
2018-02-15T04:19:34.214Z,-0.10
2018-02-15T04:22:02.528Z,-0.10
2018-02-15T04:24:30.876Z,-0.10
2018-02-15T04:26:59.897Z,-0.10
2018-02-15T04:29:28.175Z,-0.10
2018-02-15T04:31:57.208Z,-0.10
2018-02-15T04:34:25.479Z,-0.10
2018-02-15T04:36:53.739Z,-0.10
2018-02-15T04:39:22.791Z,-0.10
2018-02-15T04:41:51.073Z,-0.10
2018-02-15T04:44:19.338Z,-0.10
2018-02-15T04:46:48.340Z,0.00
2018-02-15T04:49:17.389Z,0.00
2018-02-15T04:51:45.928Z,0.00
2018-02-15T04:54:14.228Z,0.10
2018-02-15T04:56:43.378Z,0.00
2018-02-15T04:59:11.781Z,0.00
2018-02-15T05:01:40.137Z,0.10
2018-02-15T05:04:09.215Z,0.10
2018-02-15T05:06:38.293Z,0.10
2018-02-15T05:09:06.584Z,0.10
2018-02-15T05:11:34.849Z,0.20
2018-02-15T05:14:03.143Z,0.20
2018-02-15T05:16:31.404Z,0.20
2018-02-15T05:18:59.697Z,0.20
2018-02-15T05:21:28.714Z,0.30
2018-02-15T05:23:56.985Z,0.20
2018-02-15T05:26:25.999Z,0.30
2018-02-15T05:28:55.043Z,0.30
2018-02-15T05:31:23.306Z,0.30
2018-02-15T05:33:51.565Z,0.30
2018-02-15T05:36:19.828Z,0.40
2018-02-15T05:38:48.080Z,0.30
2018-02-15T05:41:16.397Z,0.30
2018-02-15T05:43:44.684Z,0.30
2018-02-15T05:46:12.996Z,0.30
2018-02-15T05:48:41.297Z,0.30
2018-02-15T05:51:09.587Z,0.30
2018-02-15T05:53:37.831Z,0.40
2018-02-15T05:56:06.100Z,0.40
2018-02-15T05:58:34.348Z,0.40
2018-02-15T06:01:02.623Z,0.40
2018-02-15T06:03:30.900Z,0.40
2018-02-15T06:05:59.173Z,0.40
2018-02-15T06:08:27.445Z,0.40
2018-02-15T06:10:55.724Z,0.50
2018-02-15T06:13:23.980Z,0.50
2018-02-15T06:15:52.267Z,0.50
2018-02-15T06:18:20.538Z,0.40
2018-02-15T06:20:49.597Z,0.40
2018-02-15T06:23:17.851Z,0.40
2018-02-15T06:25:46.151Z,0.50
2018-02-15T06:28:15.254Z,0.40
2018-02-15T06:30:44.344Z,0.40
2018-02-15T06:33:12.823Z,0.30
2018-02-15T06:35:42.138Z,0.40
2018-02-15T06:38:10.482Z,0.40
2018-02-15T06:40:39.512Z,0.50
2018-02-15T06:43:07.789Z,0.40
2018-02-15T06:45:36.110Z,0.50
2018-02-15T06:48:04.350Z,0.50
2018-02-15T06:50:33.379Z,0.60
2018-02-15T06:53:02.309Z,0.60
2018-02-15T06:55:30.601Z,0.70
2018-02-15T06:57:58.880Z,0.80
2018-02-15T07:00:27.152Z,0.80
2018-02-15T07:02:55.411Z,0.80
2018-02-15T07:05:24.449Z,0.80
2018-02-15T07:07:52.748Z,0.70
2018-02-15T07:10:21.013Z,0.80
2018-02-15T07:12:50.447Z,0.90
2018-02-15T07:15:18.772Z,0.90
2018-02-15T07:17:47.080Z,0.90
2018-02-15T07:20:15.576Z,0.90
2018-02-15T07:22:43.870Z,0.90
2018-02-15T07:25:12.203Z,1.00
2018-02-15T07:27:42.150Z,1.00
2018-02-15T07:30:11.221Z,1.10
2018-02-15T07:32:39.488Z,1.10
2018-02-15T07:35:07.744Z,1.10
2018-02-15T07:37:36.784Z,1.20
2018-02-15T07:40:05.036Z,1.20
2018-02-15T07:42:33.311Z,1.30
2018-02-15T07:45:01.551Z,1.30
2018-02-15T07:47:30.619Z,1.70
2018-02-15T07:49:58.959Z,1.70
2018-02-15T07:52:28.014Z,1.70
2018-02-15T07:54:56.268Z,1.60
2018-02-15T07:57:24.540Z,1.70
2018-02-15T07:59:53.561Z,1.60
2018-02-15T08:02:22.592Z,1.60
2018-02-15T08:04:50.873Z,1.50
2018-02-15T08:07:19.140Z,1.60
2018-02-15T08:09:48.155Z,1.60
2018-02-15T08:12:16.437Z,1.50
2018-02-15T08:14:44.883Z,1.50
2018-02-15T08:17:13.511Z,2.00
2018-02-15T08:19:42.766Z,2.10
2018-02-15T08:22:11.290Z,2.10
2018-02-15T08:24:39.557Z,2.10
2018-02-15T08:27:07.992Z,1.80
2018-02-15T08:29:36.853Z,1.70
2018-02-15T08:32:05.127Z,1.60
2018-02-15T08:34:33.519Z,1.60
2018-02-15T08:37:02.617Z,1.50
2018-02-15T08:39:30.978Z,1.50
2018-02-15T08:42:00.120Z,1.50
2018-02-15T08:44:28.698Z,1.50
2018-02-15T08:46:58.155Z,1.60
2018-02-15T08:49:26.833Z,1.60
2018-02-15T08:51:55.224Z,1.70
2018-02-15T08:54:23.497Z,1.70
2018-02-15T08:56:53.300Z,1.60
2018-02-15T08:59:21.701Z,1.60
2018-02-15T09:01:49.988Z,1.60
2018-02-15T09:04:19.155Z,1.70
2018-02-15T09:06:47.535Z,1.70
2018-02-15T09:09:16.082Z,1.80
2018-02-15T09:11:44.817Z,1.70
2018-02-15T09:14:13.912Z,1.70
2018-02-15T09:16:43.136Z,1.70
2018-02-15T09:19:11.528Z,1.70
2018-02-15T09:21:39.803Z,1.70
2018-02-15T09:24:08.987Z,1.70
2018-02-15T09:26:37.564Z,1.60
2018-02-15T09:29:05.907Z,1.60
2018-02-15T09:31:34.399Z,1.60
2018-02-15T09:34:02.703Z,1.60
2018-02-15T09:36:31.128Z,1.60
2018-02-15T09:38:59.539Z,1.70
2018-02-15T09:41:28.647Z,2.20
2018-02-15T09:43:56.943Z,1.90
2018-02-15T09:46:25.349Z,2.10
2018-02-15T09:48:54.474Z,2.10
2018-02-15T09:51:23.923Z,2.20
2018-02-15T09:56:22.935Z,2.20
2018-02-15T09:58:51.379Z,2.20
2018-02-15T10:01:19.774Z,2.20
2018-02-15T10:03:48.379Z,2.40
2018-02-15T10:06:16.899Z,2.60
2018-02-15T10:08:46.100Z,2.90
2018-02-15T10:11:15.739Z,3.00
2018-02-15T10:13:44.129Z,3.00
2018-02-15T10:16:12.668Z,3.10
2018-02-15T10:18:41.060Z,3.10
2018-02-15T10:21:09.943Z,3.10
2018-02-15T10:23:38.205Z,3.00
2018-02-15T10:26:06.527Z,3.00
2018-02-15T10:28:34.789Z,3.00
2018-02-15T10:31:03.174Z,3.00
2018-02-15T10:33:32.315Z,3.20
2018-02-15T10:36:00.692Z,3.10
2018-02-15T10:38:29.224Z,3.30
2018-02-15T10:40:57.762Z,3.40
2018-02-15T10:43:26.878Z,3.60
2018-02-15T10:45:55.920Z,3.60
2018-02-15T10:48:24.239Z,3.60
2018-02-15T10:50:52.816Z,3.60
2018-02-15T10:53:21.162Z,3.60
2018-02-15T10:55:50.293Z,3.60
2018-02-15T10:58:18.574Z,3.60
2018-02-15T11:00:52.480Z,3.70
2018-02-15T11:03:26.968Z,3.60
2018-02-15T11:06:00.656Z,3.60
2018-02-15T11:08:29.067Z,3.60
2018-02-15T11:10:57.960Z,3.60
2018-02-15T11:13:26.321Z,3.50
2018-02-15T11:15:57.265Z,3.40
2018-02-15T11:18:26.298Z,3.50
2018-02-15T11:20:54.600Z,3.50
2018-02-15T11:23:23.611Z,3.60
2018-02-15T11:25:51.918Z,3.70
2018-02-15T11:28:20.337Z,3.80
2018-02-15T11:30:48.799Z,3.80
2018-02-15T11:33:17.074Z,3.90
2018-02-15T11:35:45.716Z,4.00
2018-02-15T11:38:13.983Z,4.10
2018-02-15T11:40:42.451Z,4.40
2018-02-15T11:43:10.797Z,4.50
2018-02-15T11:45:39.915Z,4.50
2018-02-15T11:48:08.596Z,4.40
2018-02-15T11:50:37.842Z,4.50
2018-02-15T11:53:06.191Z,4.50
2018-02-15T11:55:34.878Z,4.60
2018-02-15T11:58:03.475Z,4.70
2018-02-15T12:00:33.461Z,4.70
2018-02-15T12:03:02.070Z,4.60
2018-02-15T12:05:31.128Z,4.80
2018-02-15T12:07:59.715Z,4.70
2018-02-15T12:10:28.196Z,4.60
2018-02-15T12:12:56.681Z,4.70
2018-02-15T12:15:25.743Z,4.90
2018-02-15T12:17:54.024Z,4.80
2018-02-15T12:20:23.168Z,4.70
2018-02-15T12:22:51.583Z,4.70
2018-02-15T12:25:19.903Z,4.60
2018-02-15T12:27:49.207Z,4.60
2018-02-15T12:30:17.595Z,4.50
2018-02-15T12:32:46.075Z,4.70
2018-02-15T12:35:14.572Z,4.80
2018-02-15T12:37:43.031Z,4.90
2018-02-15T12:40:11.525Z,5.10
2018-02-15T12:42:39.926Z,5.20
2018-02-15T12:45:09.197Z,5.20
2018-02-15T12:47:38.447Z,5.10
2018-02-15T12:50:07.003Z,5.10
2018-02-15T12:52:36.300Z,5.20
2018-02-15T12:55:05.725Z,5.30
2018-02-15T12:57:34.778Z,5.40
2018-02-15T13:00:03.242Z,5.30
2018-02-15T13:02:31.760Z,5.30
2018-02-15T13:05:00.359Z,5.50
2018-02-15T13:07:28.663Z,5.50
2018-02-15T13:09:57.010Z,5.50
2018-02-15T13:12:43.063Z,5.60
2018-02-15T13:15:29.190Z,5.40
2018-02-15T13:17:57.768Z,5.30
2018-02-15T13:20:26.147Z,5.20
2018-02-15T13:22:54.551Z,5.20
2018-02-15T13:25:23.590Z,5.00
2018-02-15T13:28:09.794Z,5.00
2018-02-15T13:30:38.292Z,4.90
2018-02-15T13:33:06.843Z,4.80
2018-02-15T13:35:35.305Z,4.70
2018-02-15T13:38:03.699Z,4.80
2018-02-15T13:40:32.854Z,4.90
2018-02-15T13:43:01.307Z,4.90
2018-02-15T13:45:29.612Z,4.90
2018-02-15T13:47:58.051Z,4.90
2018-02-15T13:50:26.436Z,4.90
2018-02-15T13:52:55.372Z,4.90
2018-02-15T13:55:24.717Z,5.10
2018-02-15T13:57:53.254Z,5.00
2018-02-15T14:00:21.866Z,5.10
2018-02-15T14:02:50.655Z,5.10
2018-02-15T14:05:19.066Z,5.10
2018-02-15T14:07:47.962Z,5.20
2018-02-15T14:10:16.582Z,5.20
2018-02-15T14:12:46.060Z,5.90
2018-02-15T14:15:15.702Z,5.90
2018-02-15T14:17:44.307Z,6.00
2018-02-15T14:20:14.148Z,5.80
2018-02-15T14:22:43.365Z,5.80
2018-02-15T14:25:12.669Z,5.60
2018-02-15T14:27:41.956Z,5.60
2018-02-15T14:30:10.684Z,5.50
2018-02-15T14:32:39.972Z,5.60
2018-02-15T14:35:09.487Z,5.80
2018-02-15T14:37:44.224Z,5.70
2018-02-15T14:40:12.917Z,5.80
2018-02-15T14:42:41.990Z,5.90
2018-02-15T14:45:10.709Z,5.90
2018-02-15T14:47:39.736Z,6.00
2018-02-15T14:50:08.612Z,6.10
2018-02-15T14:52:37.120Z,6.10
2018-02-15T14:55:05.652Z,6.20
2018-02-15T14:57:35.450Z,6.20
2018-02-15T15:00:04.323Z,6.10
2018-02-15T15:02:33.104Z,6.10
2018-02-15T15:05:01.916Z,5.90
2018-02-15T15:07:30.848Z,5.80
2018-02-15T15:09:59.702Z,5.70
2018-02-15T15:12:28.505Z,5.70
2018-02-15T15:14:58.154Z,5.50
2018-02-15T15:17:27.010Z,5.50
2018-02-15T15:19:56.148Z,5.40
2018-02-15T15:22:24.795Z,5.40
2018-02-15T15:24:53.115Z,5.40
2018-02-15T15:27:22.456Z,5.40
2018-02-15T15:29:51.095Z,5.40
2018-02-15T15:32:20.600Z,5.30
2018-02-15T15:34:50.122Z,5.30
2018-02-15T15:37:19.513Z,5.30
2018-02-15T15:39:48.820Z,5.10
2018-02-15T15:42:17.878Z,5.10
2018-02-15T15:44:47.354Z,5.10
2018-02-15T15:47:17.900Z,5.20
2018-02-15T15:49:46.563Z,5.10
2018-02-15T15:52:16.332Z,5.20
2018-02-15T15:54:45.302Z,5.10
2018-02-15T15:57:13.993Z,5.10
2018-02-15T15:59:43.482Z,5.20
2018-02-15T16:02:12.331Z,5.10
2018-02-15T16:04:41.993Z,5.20
2018-02-15T16:07:10.812Z,5.20
2018-02-15T16:09:39.169Z,5.20
2018-02-15T16:12:07.495Z,5.20
2018-02-15T16:14:35.868Z,5.20
2018-02-15T16:17:04.653Z,5.20
2018-02-15T16:19:33.314Z,5.20
2018-02-15T16:22:01.821Z,5.10
2018-02-15T16:24:30.232Z,5.20
2018-02-15T16:26:59.364Z,5.20
2018-02-15T16:29:27.705Z,5.20
2018-02-15T16:31:56.809Z,5.20
2018-02-15T16:34:25.659Z,5.20
2018-02-15T16:36:54.074Z,5.20
2018-02-15T16:39:22.370Z,5.20
2018-02-15T16:41:50.777Z,5.20
2018-02-15T16:44:19.956Z,5.30
2018-02-15T16:46:49.349Z,5.30
2018-02-15T16:49:18.931Z,5.30
2018-02-15T16:51:48.680Z,5.30
2018-02-15T16:54:18.372Z,5.30
2018-02-15T16:56:47.805Z,5.40
2018-02-15T16:59:17.432Z,5.30
2018-02-15T17:01:47.118Z,5.40
2018-02-15T17:04:16.520Z,5.30
2018-02-15T17:06:45.562Z,5.30
2018-02-15T17:09:16.241Z,5.30
2018-02-15T17:11:45.219Z,5.30
2018-02-15T17:14:15.988Z,5.40
2018-02-15T17:16:44.373Z,5.40
2018-02-15T17:19:12.826Z,5.40
2018-02-15T17:21:41.177Z,5.50
2018-02-15T17:24:09.449Z,5.60
2018-02-15T17:26:37.704Z,5.70
2018-02-15T17:29:06.815Z,5.60
2018-02-15T17:31:35.173Z,5.60
2018-02-15T17:34:03.630Z,5.60
2018-02-15T17:36:31.900Z,5.70
2018-02-15T17:39:00.297Z,5.70
2018-02-15T17:41:28.661Z,5.70
2018-02-15T17:43:57.045Z,5.70
2018-02-15T17:46:25.372Z,5.70
2018-02-15T17:48:53.664Z,5.60
2018-02-15T17:51:22.014Z,5.60
2018-02-15T17:53:50.345Z,5.60
2018-02-15T17:56:19.425Z,5.50
2018-02-15T17:58:48.477Z,5.40
2018-02-15T18:01:16.829Z,5.40
2018-02-15T18:03:46.067Z,5.50
2018-02-15T18:06:14.561Z,5.40
2018-02-15T18:08:43.003Z,5.50
2018-02-15T18:11:11.426Z,5.60
2018-02-15T18:13:41.370Z,5.50
2018-02-15T18:16:09.792Z,5.40
2018-02-15T18:18:38.092Z,5.50
2018-02-15T18:21:06.431Z,5.50
2018-02-15T18:23:36.046Z,5.80
2018-02-15T18:26:05.162Z,5.90
2018-02-15T18:28:34.217Z,6.00
2018-02-15T18:31:02.590Z,5.90
2018-02-15T18:33:30.941Z,6.10
2018-02-15T18:36:00.032Z,6.20
2018-02-15T18:38:28.435Z,6.10
2018-02-15T18:40:57.778Z,6.00
2018-02-15T18:43:26.899Z,6.00
2018-02-15T18:45:55.305Z,6.00
2018-02-15T18:48:23.561Z,5.80
2018-02-15T18:50:51.965Z,5.70
2018-02-15T18:53:20.239Z,5.60
2018-02-15T18:55:49.476Z,5.70
2018-02-15T18:58:17.984Z,5.60
2018-02-15T19:00:46.415Z,5.70
2018-02-15T19:03:14.830Z,5.70
2018-02-15T19:05:43.838Z,5.60
2018-02-15T19:08:12.975Z,5.50
2018-02-15T19:10:42.521Z,5.50
2018-02-15T19:13:11.050Z,5.50
2018-02-15T19:15:40.349Z,5.40
2018-02-15T19:18:10.349Z,5.40
2018-02-15T19:20:38.795Z,5.40
2018-02-15T19:23:07.195Z,5.40
2018-02-15T19:28:06.052Z,5.40
2018-02-15T19:30:34.589Z,5.40
2018-02-15T19:33:03.032Z,5.50
2018-02-15T19:35:31.389Z,5.60
2018-02-15T19:37:59.705Z,5.60
2018-02-15T19:40:28.024Z,5.70
2018-02-15T19:42:57.120Z,5.60
2018-02-15T19:45:25.428Z,5.60
2018-02-15T19:47:53.775Z,5.50
2018-02-15T19:50:22.090Z,5.40
2018-02-15T19:52:50.354Z,5.40
2018-02-15T19:55:18.657Z,5.40
2018-02-15T19:57:46.985Z,5.40
2018-02-15T20:00:15.459Z,5.50
2018-02-15T20:02:43.889Z,5.40
2018-02-15T20:05:12.353Z,5.40
2018-02-15T20:07:40.696Z,5.40
2018-02-15T20:10:09.011Z,5.30
2018-02-15T20:12:37.316Z,5.30
2018-02-15T20:15:05.712Z,5.30
2018-02-15T20:17:33.989Z,5.40
2018-02-15T20:20:08.075Z,5.40
2018-02-15T20:22:37.266Z,5.40
2018-02-15T20:25:07.285Z,5.30
2018-02-15T20:27:41.125Z,5.30
2018-02-15T20:30:09.448Z,5.30
2018-02-15T20:32:37.874Z,5.40
2018-02-15T20:35:06.327Z,5.30
2018-02-15T20:37:40.077Z,5.30
2018-02-15T20:40:13.885Z,5.30
2018-02-15T20:42:42.386Z,5.20
2018-02-15T20:45:10.794Z,5.30
2018-02-15T20:47:39.111Z,5.30
2018-02-15T20:50:12.977Z,5.20
2018-02-15T20:52:46.912Z,5.20
2018-02-15T20:55:20.656Z,5.30
2018-02-15T20:57:49.049Z,5.30
2018-02-15T21:00:18.251Z,5.20
2018-02-15T21:02:46.626Z,5.30
2018-02-15T21:05:15.700Z,5.30
2018-02-15T21:07:44.911Z,5.30
2018-02-15T21:10:14.063Z,5.30
2018-02-15T21:12:42.582Z,5.30
2018-02-15T21:15:10.883Z,5.30
2018-02-15T21:17:40.082Z,5.30
2018-02-15T21:20:08.502Z,5.30
2018-02-15T21:22:37.675Z,5.30
2018-02-15T21:25:06.006Z,5.30
2018-02-15T21:27:35.132Z,5.30
2018-02-15T21:30:03.660Z,5.20
2018-02-15T21:32:32.006Z,5.30
2018-02-15T21:35:00.292Z,5.30
2018-02-15T21:37:29.884Z,5.30
2018-02-15T21:39:58.211Z,5.30
2018-02-15T21:42:26.581Z,5.30
2018-02-15T21:44:55.819Z,5.40
2018-02-15T21:47:24.132Z,5.40
2018-02-15T21:49:52.543Z,5.40
2018-02-15T21:52:22.290Z,5.30
2018-02-15T21:54:50.588Z,5.40
2018-02-15T21:57:18.940Z,5.40
2018-02-15T21:59:47.243Z,5.40
2018-02-15T22:02:15.659Z,5.40
2018-02-15T22:04:45.044Z,5.40
2018-02-15T22:07:13.731Z,5.40
2018-02-15T22:09:42.190Z,5.40
2018-02-15T22:12:10.534Z,5.40
2018-02-15T22:14:38.892Z,5.40
2018-02-15T22:17:07.221Z,5.40
2018-02-15T22:19:35.516Z,5.40
2018-02-15T22:22:03.830Z,5.40
2018-02-15T22:24:33.256Z,5.40
2018-02-15T22:27:01.563Z,5.40
2018-02-15T22:29:29.921Z,5.40
2018-02-15T22:31:58.238Z,5.40
2018-02-15T22:34:26.533Z,5.30
2018-02-15T22:36:54.834Z,5.30
2018-02-15T22:39:23.217Z,5.20
2018-02-15T22:41:51.553Z,5.10
2018-02-15T22:44:20.296Z,5.10
2018-02-15T22:46:48.600Z,5.00
2018-02-15T22:49:17.004Z,5.00
2018-02-15T22:51:47.468Z,4.90
2018-02-15T22:54:16.853Z,4.90
2018-02-15T22:56:45.170Z,4.90
2018-02-15T22:59:13.767Z,4.90
2018-02-15T23:01:42.257Z,4.80
2018-02-15T23:04:10.765Z,4.80
2018-02-15T23:06:39.092Z,4.80
2018-02-15T23:09:08.153Z,4.70
2018-02-15T23:11:36.470Z,4.70
2018-02-15T23:14:04.834Z,4.70
2018-02-15T23:16:33.110Z,4.70
2018-02-15T23:19:01.553Z,4.70
2018-02-15T23:21:30.688Z,4.70
2018-02-15T23:23:59.064Z,4.60
2018-02-15T23:26:27.462Z,4.70
2018-02-15T23:28:56.989Z,4.70
2018-02-15T23:31:25.438Z,4.70
2018-02-15T23:33:53.774Z,4.60
2018-02-15T23:36:22.035Z,4.60
2018-02-15T23:38:51.080Z,4.60
2018-02-15T23:41:19.345Z,4.50
2018-02-15T23:43:48.400Z,4.50
2018-02-15T23:46:16.708Z,4.50
2018-02-15T23:48:45.056Z,4.60
2018-02-15T23:51:13.420Z,4.60
2018-02-15T23:53:41.803Z,4.60
2018-02-15T23:56:11.694Z,4.50
2018-02-15T23:58:39.985Z,4.50
